Time;durP1;ratioP1;P1;durP2;ratioP2;P2;SDS_P1;SDS_P2;PMS_P1;PMS_P2;Temp;Humidity;BMP_temperature;BMP_pressure;BME280_temperature;BME280_humidity;BME280_pressure;Samples;Min_cycle;Max_cycle;Signal;HPM_P1;HPM_P2
2022/08/21 00:01:10;;;;;;;154.77;76.38;;;;;;;17.05;46.86;100453.97;4836015;29;20530;-90
2022/08/21 00:03:36;;;;;;;152.57;78.28;;;;;;;17.31;46.49;100506.41;4880259;29;20056;-89
2022/08/21 00:06:03;;;;;;;;;;;;;;;17.36;46.62;100509.81;4866957;29;20040;-89
2022/08/21 00:11:15;;;;;;;137.63;74.47;;;;;;;16.79;46.87;100431.94;4881738;29;20049;-94
2022/08/21 00:13:41;;;;;;;139.10;73.10;;;;;;;17.03;46.87;100481.94;4838836;29;20041;-90
2022/08/21 00:16:08;;;;;;;150.98;72.95;;;;;;;16.89;46.84;100456.47;4866203;29;20036;-90
2022/08/21 00:18:34;;;;;;;143.23;74.88;;;;;;;16.80;46.59;100439.09;4881473;29;20072;-91
2022/08/21 00:21:01;;;;;;;152.43;73.60;;;;;;;16.86;46.44;100451.59;4845884;29;20037;-91
2022/08/21 00:23:29;;;;;;;144.30;73.20;;;;;;;16.76;46.24;100441.69;4850480;29;20476;-93
2022/08/21 00:25:56;;;;;;;155.13;74.40;;;;;;;17.00;46.68;100476.25;4879936;29;20076;-89
2022/08/21 00:28:22;;;;;;;141.80;74.53;;;;;;;16.80;46.98;100450.94;4833906;29;20082;-92
2022/08/21 00:30:48;;;;;;;151.77;75.38;;;;;;;16.91;46.58;100471.53;4865676;29;20533;-89
2022/08/21 00:33:14;;;;;;;148.40;75.97;;;;;;;16.83;46.93;100466.06;4882390;29;20040;-93
2022/08/21 00:35:42;;;;;;;156.80;76.97;;;;;;;17.03;46.91;100501.28;4865004;29;20041;-89
2022/08/21 00:38:09;;;;;;;147.23;75.25;;;;;;;17.00;46.93;100495.59;4864650;29;20104;-90
2022/08/21 00:40:53;;;;;;;149.23;75.03;;;;;;;16.80;47.33;100458.41;4891335;29;20036;-90
2022/08/21 00:43:28;;;;;;;151.98;76.20;;;;;;;16.89;46.92;100482.13;4863900;29;20045;-89
2022/08/21 00:45:55;;;;;;;145.90;75.47;;;;;;;16.92;46.85;100491.72;4854541;29;20080;-87
2022/08/21 00:48:22;;;;;;;159.43;75.63;;;;;;;16.83;47.59;100483.44;4843586;29;20523;-90
2022/08/21 00:51:12;;;;;;;150.20;74.97;;;;;;;16.70;47.62;100461.47;4879787;29;20045;-90
2022/08/21 00:53:41;;;;;;;146.75;75.32;;;;;;;16.62;47.21;100463.09;4849510;29;20049;-89
2022/08/21 00:56:10;;;;;;;150.43;73.85;;;;;;;16.57;47.34;100461.31;4879216;29;20093;-89
2022/08/21 00:58:39;;;;;;;142.77;74.15;;;;;;;16.42;47.61;100442.47;4896578;29;20044;-90
2022/08/21 01:01:06;;;;;;;151.13;76.38;;;;;;;16.63;48.69;100482.09;4879226;29;20040;-91
2022/08/21 01:03:33;;;;;;;147.27;74.72;;;;;;;16.48;48.77;100477.06;4848781;29;20044;-90
2022/08/21 01:06:00;;;;;;;144.40;71.97;;;;;;;16.52;48.35;100478.03;4857207;29;20496;-88
2022/08/21 01:08:28;;;;;;;143.68;74.88;;;;;;;16.56;48.53;100492.84;4860683;29;20080;-90
2022/08/21 01:10:56;;;;;;;137.90;73.57;;;;;;;16.50;48.50;100474.81;4893794;29;20077;-88
2022/08/21 01:13:27;;;;;;;148.48;73.72;;;;;;;16.57;48.51;100496.41;4848910;29;20073;-89
2022/08/21 01:15:56;;;;;;;141.80;74.07;;;;;;;16.63;48.17;100506.97;4863703;29;20037;-89
2022/08/21 01:18:23;;;;;;;155.80;73.47;;;;;;;16.58;48.30;100504.34;4879099;29;20083;-93
2022/08/21 01:21:16;;;;;;;144.27;73.13;;;;;;;16.62;48.51;100505.34;4848348;29;20041;-89
2022/08/21 01:23:46;;;;;;;141.90;71.22;;;;;;;16.35;48.40;100461.47;4860415;29;20053;-93
2022/08/21 01:26:15;;;;;;;153.55;72.15;;;;;;;16.21;48.20;100448.63;4851548;29;20041;-90
2022/08/21 01:28:52;;;;;;;149.77;71.82;;;;;;;16.29;48.36;100455.31;4870708;29;20503;-91
2022/08/21 01:31:24;;;;;;;149.40;71.63;;;;;;;16.53;48.28;100484.38;4870903;29;20156;-90
2022/08/21 01:33:50;;;;;;;138.48;70.70;;;;;;;16.17;48.87;100447.66;4886566;29;20041;-89
2022/08/21 01:36:16;;;;;;;147.80;69.82;;;;;;;16.31;48.37;100461.31;4876019;29;20046;-90
2022/08/21 01:38:42;;;;;;;132.93;67.78;;;;;;;16.15;48.38;100447.16;4888976;29;20409;-88
2022/08/21 01:41:08;;;;;;;137.98;68.68;;;;;;;16.26;48.53;100466.16;4866974;29;20085;-92
2022/08/21 01:43:34;;;;;;;138.75;68.70;;;;;;;16.23;48.46;100467.66;4880195;29;20438;-90
2022/08/21 01:46:03;;;;;;;147.63;68.87;;;;;;;15.98;49.07;100425.06;4867072;29;20523;-90
2022/08/21 01:48:29;;;;;;;139.10;68.25;;;;;;;16.45;49.48;100510.81;4848381;29;20053;-90
2022/08/21 01:51:16;;;;;;;126.10;66.40;;;;;;;16.17;48.63;100453.19;4896169;29;20041;-89
2022/08/21 01:53:42;;;;;;;143.98;65.88;;;;;;;16.35;49.57;100500.09;4837588;29;20063;-90
2022/08/21 01:56:11;;;;;;;121.37;63.37;;;;;;;16.07;49.30;100453.50;4822343;29;20050;-93
2022/08/21 01:58:37;;;;;;;130.10;64.70;;;;;;;16.31;49.90;100502.69;4792181;29;20520;-93
2022/08/21 02:03:55;;;;;;;134.73;66.68;;;;;;;16.10;49.38;100482.38;4834846;29;20046;-89
2022/08/21 02:06:21;;;;;;;129.27;63.67;;;;;;;15.81;49.80;100425.06;4831560;29;20098;-92
2022/08/21 02:08:47;;;;;;;131.20;64.32;;;;;;;15.91;49.54;100455.06;4806960;29;20070;-89
2022/08/21 02:11:14;;;;;;;121.40;62.70;;;;;;;15.91;49.48;100468.88;4792079;29;20063;-89
2022/08/21 02:13:40;;;;;;;127.22;63.78;;;;;;;15.89;49.58;100460.94;4807095;29;20069;-90
2022/08/21 02:16:07;;;;;;;130.23;63.10;;;;;;;16.17;50.20;100502.84;4811368;29;20038;-91
2022/08/21 02:18:34;;;;;;;124.50;62.78;;;;;;;16.18;49.77;100511.94;4821867;29;20149;-90
2022/08/21 02:23:27;;;;;;;119.75;62.20;;;;;;;16.11;49.93;100506.88;4823345;29;20065;-93
2022/08/21 02:25:54;;;;;;;126.30;62.38;;;;;;;15.93;50.13;100491.44;4807168;29;20046;-89
2022/08/21 02:28:21;;;;;;;124.97;62.95;;;;;;;16.13;50.13;100525.88;4836854;29;20054;-91
2022/08/21 02:30:48;;;;;;;127.47;62.10;;;;;;;15.95;49.94;100497.44;4827434;29;20053;-89
2022/08/21 02:33:15;;;;;;;146.77;61.15;;;;;;;16.01;50.29;100500.84;4854707;29;20423;-90
2022/08/21 02:35:43;;;;;;;121.13;59.42;;;;;;;15.78;50.05;100469.81;4877524;29;20045;-91
2022/08/21 02:38:13;;;;;;;136.38;61.55;;;;;;;15.81;50.13;100469.16;4867501;29;20112;-93
2022/08/21 02:40:41;;;;;;;119.63;60.63;;;;;;;15.92;50.13;100492.53;4847328;29;20033;-90
2022/08/21 02:43:07;;;;;;;117.15;59.85;;;;;;;15.86;50.12;100480.88;4862652;29;20139;-91
2022/08/21 02:45:34;;;;;;;118.88;57.95;;;;;;;15.56;50.82;100430.13;4881146;29;20032;-93
2022/08/21 02:48:04;;;;;;;127.68;58.40;;;;;;;16.04;50.43;100514.81;4888574;29;20082;-91
2022/08/21 02:50:34;;;;;;;130.98;58.38;;;;;;;15.89;50.55;100479.41;4853796;29;20096;-90
2022/08/21 02:53:01;;;;;;;121.25;59.00;;;;;;;15.75;50.53;100468.50;4832208;29;20096;-91
2022/08/21 02:55:29;;;;;;;118.25;57.85;;;;;;;15.68;50.52;100451.59;4831838;29;20151;-89
2022/08/21 02:57:56;;;;;;;119.13;58.92;;;;;;;15.76;50.95;100466.53;4862259;29;20041;-91
2022/08/21 03:00:25;;;;;;;128.38;58.65;;;;;;;15.63;50.81;100446.19;4861881;29;20535;-89
2022/08/21 03:02:53;;;;;;;112.38;58.90;;;;;;;16.01;50.98;100501.66;4835887;29;20566;-90
2022/08/21 03:05:19;;;;;;;125.00;57.40;;;;;;;15.89;50.56;100487.66;4847309;29;20037;-89
2022/08/21 03:07:48;;;;;;;131.45;57.58;;;;;;;16.01;50.96;100501.66;4850026;29;20208;-91
2022/08/21 03:10:15;;;;;;;123.68;57.85;;;;;;;15.83;50.78;100469.66;4862473;29;20140;-90
2022/08/21 03:12:42;;;;;;;125.95;60.90;;;;;;;15.77;50.39;100449.69;4879919;29;20041;-90
2022/08/21 03:15:14;;;;;;;132.75;60.97;;;;;;;16.16;50.14;100511.44;4865448;29;20119;-91
2022/08/21 03:17:40;;;;;;;122.80;59.33;;;;;;;15.81;50.64;100453.44;4865522;29;20100;-89
2022/08/21 03:20:08;;;;;;;129.33;59.47;;;;;;;16.29;51.00;100531.75;4853168;29;20128;-90
2022/08/21 03:25:00;;;;;;;116.85;59.22;;;;;;;16.02;51.01;100475.69;4882076;29;20399;-91
2022/08/21 03:30:19;;;;;;;124.40;59.70;;;;;;;16.23;50.56;100494.44;4865826;29;20022;-90
2022/08/21 03:32:48;;;;;;;129.30;61.35;;;;;;;16.03;50.77;100466.31;4880830;29;20041;-91
2022/08/21 03:35:14;;;;;;;134.85;63.00;;;;;;;16.47;50.73;100530.66;4865588;29;20093;-91
2022/08/21 03:37:41;;;;;;;143.05;61.83;;;;;;;16.11;50.42;100472.97;4869283;29;20498;-90
2022/08/21 03:45:24;;;;;;;129.73;64.03;;;;;;;16.31;50.10;100485.34;4878728;29;20057;-94
2022/08/21 03:50:26;;;;;;;129.88;65.88;;;;;;;16.37;50.25;100484.06;4886824;29;20052;-91
2022/08/21 03:52:52;;;;;;;128.02;63.60;;;;;;;16.29;50.50;100462.75;4867930;29;20033;-90
2022/08/21 03:58:30;;;;;;;137.35;66.93;;;;;;;16.81;50.54;100540.94;4917590;29;20055;-91
2022/08/21 04:01:00;;;;;;;127.57;66.70;;;;;;;16.59;50.31;100494.13;4796789;29;20627;-89
2022/08/21 04:03:28;;;;;;;139.35;67.72;;;;;;;16.63;50.30;100492.34;4803942;29;20432;-90
2022/08/21 04:05:54;;;;;;;140.70;68.43;;;;;;;16.76;50.35;100504.41;4808751;29;20062;-90
2022/08/21 04:08:20;;;;;;;142.65;71.47;;;;;;;16.62;49.90;100472.22;4823947;29;20533;-89
2022/08/21 04:10:50;;;;;;;161.17;72.63;;;;;;;16.55;50.15;100462.78;4817888;29;20059;-90
2022/08/21 04:13:34;;;;;;;152.43;73.47;;;;;;;17.06;50.32;100527.44;4805776;29;20299;-90
2022/08/21 04:16:01;;;;;;;147.52;72.85;;;;;;;16.86;49.95;100493.81;4810792;29;20184;-90
2022/08/21 04:18:27;;;;;;;145.87;73.20;;;;;;;16.94;49.94;100500.47;4806219;29;20051;-90
2022/08/21 04:20:56;;;;;;;163.13;75.13;;;;;;;16.79;49.85;100468.66;4805894;29;20616;-92
2022/08/21 04:23:22;;;;;;;148.50;74.95;;;;;;;16.96;49.81;100500.97;4803654;29;20145;-89
2022/08/21 04:25:48;;;;;;;146.55;74.05;;;;;;;17.08;50.01;100514.91;4795142;29;20055;-92
2022/08/21 04:28:15;;;;;;;148.68;75.75;;;;;;;17.30;49.64;100543.50;4806083;29;20042;-90
2022/08/21 04:30:41;;;;;;;161.25;79.05;;;;;;;17.32;49.92;100532.94;4790404;29;20146;-91
2022/08/21 04:33:08;;;;;;;162.18;76.65;;;;;;;17.01;49.40;100484.22;4805501;29;20047;-93
2022/08/21 04:35:34;;;;;;;166.93;76.60;;;;;;;17.30;49.74;100524.97;4787739;29;20070;-90
2022/08/21 04:38:00;;;;;;;159.80;79.97;;;;;;;17.15;49.12;100506.13;4813049;29;20053;-91
2022/08/21 04:40:28;;;;;;;149.57;77.30;;;;;;;17.21;48.72;100495.72;4887696;29;20136;-90
2022/08/21 04:43:02;;;;;;;159.88;78.75;;;;;;;17.29;49.03;100492.13;4865894;29;20048;-90
2022/08/21 04:45:31;;;;;;;153.15;77.15;;;;;;;17.13;49.14;100473.31;4849006;29;20041;-90
2022/08/21 04:48:00;;;;;;;165.85;78.80;;;;;;;17.38;48.21;100515.00;4849207;29;20060;-90
2022/08/21 04:50:31;;;;;;;167.50;81.70;;;;;;;17.18;48.81;100468.72;4869846;29;20139;-95
2022/08/21 04:53:10;;;;;;;148.63;81.10;;;;;;;17.37;48.74;100494.84;4869393;29;20033;-90
2022/08/21 04:55:37;;;;;;;168.35;81.72;;;;;;;17.49;48.25;100501.66;4864884;29;20092;-91
2022/08/21 04:58:06;;;;;;;161.73;81.95;;;;;;;17.36;48.04;100468.38;4864847;29;20460;-92
2022/08/21 05:03:22;;;;;;;171.43;84.32;;;;;;;17.61;48.17;100494.31;4872049;29;20049;-89
2022/08/21 05:05:48;;;;;;;;;;;;;;;18.02;47.38;100545.41;4879663;29;20045;-91
2022/08/21 05:08:19;;;;;;;158.68;83.10;;;;;;;17.90;46.79;100512.09;4874274;29;20087;-90
2022/08/21 05:10:45;;;;;;;170.55;81.68;;;;;;;17.83;47.17;100498.78;4867194;29;20053;-89
2022/08/21 05:13:12;;;;;;;157.45;84.13;;;;;;;18.21;46.81;100547.75;4869348;29;20108;-88
2022/08/21 05:15:39;;;;;;;166.70;85.88;;;;;;;17.97;47.43;100484.72;4872391;29;20041;-90
2022/08/21 05:18:06;;;;;;;162.27;83.28;;;;;;;18.18;46.56;100504.13;4881625;29;20066;-89
2022/08/21 05:20:34;;;;;;;164.82;84.15;;;;;;;17.98;46.43;100461.44;4863061;29;20045;-90
2022/08/21 05:23:01;;;;;;;172.27;82.80;;;;;;;18.31;46.84;100505.84;4878675;29;20153;-89
2022/08/21 05:25:27;;;;;;;169.63;84.70;;;;;;;18.22;46.33;100476.59;4857812;29;20511;-90
2022/08/21 05:27:53;;;;;;;161.05;82.60;;;;;;;18.60;46.62;100525.50;4855739;29;20553;-89
2022/08/21 05:30:20;;;;;;;165.47;84.37;;;;;;;18.54;46.12;100506.34;4878385;29;20037;-90
2022/08/21 05:32:47;;;;;;;;;;;;;;;18.77;46.16;100520.69;4862319;29;20998;-89
2022/08/21 05:35:13;;;;;;;154.43;78.95;;;;;;;18.68;45.44;100494.16;4868584;29;19936;-89
2022/08/21 05:37:40;;;;;;;159.57;78.35;;;;;;;18.63;45.33;100481.31;4877574;29;20072;-89
2022/08/21 05:40:08;;;;;;;157.75;80.90;;;;;;;18.51;45.16;100450.81;4865413;29;20073;-90
2022/08/21 05:42:34;;;;;;;159.85;78.72;;;;;;;18.64;45.32;100460.81;4843164;29;20059;-90
2022/08/21 05:45:00;;;;;;;155.52;78.55;;;;;;;18.68;44.13;100458.16;4849518;29;20044;-88
2022/08/21 05:47:26;;;;;;;149.07;78.47;;;;;;;18.92;44.77;100474.91;4894999;29;20440;-90
2022/08/21 05:49:52;;;;;;;155.68;79.22;;;;;;;19.12;45.05;100502.91;4847606;29;20053;-90
2022/08/21 05:52:22;;;;;;;143.83;77.63;;;;;;;19.40;44.89;100530.81;4862354;29;20043;-88
2022/08/21 05:54:49;;;;;;;143.23;74.93;;;;;;;19.40;44.42;100520.56;4878256;29;20036;-90
2022/08/21 05:57:16;;;;;;;145.88;73.82;;;;;;;19.45;43.36;100517.56;4875817;29;20045;-89
2022/08/21 05:59:43;;;;;;;131.40;70.38;;;;;;;19.41;42.82;100502.75;4886087;29;20041;-89
2022/08/21 06:02:09;;;;;;;149.18;74.30;;;;;;;19.55;42.63;100502.44;4862526;29;20048;-90
2022/08/21 06:04:36;;;;;;;140.50;73.57;;;;;;;19.55;42.40;100487.75;4866063;29;20127;-89
2022/08/21 06:07:02;;;;;;;139.88;71.15;;;;;;;19.81;42.20;100510.47;4835558;29;20049;-89
2022/08/21 06:09:28;;;;;;;143.73;68.88;;;;;;;19.69;41.49;100477.97;4862562;29;20058;-89
2022/08/21 06:11:54;;;;;;;147.02;70.78;;;;;;;19.81;41.88;100482.72;4879342;29;20076;-89
2022/08/21 06:14:21;;;;;;;143.63;69.10;;;;;;;19.97;41.82;100490.34;4877845;29;20151;-89
2022/08/21 06:16:47;;;;;;;150.70;67.13;;;;;;;20.00;41.47;100490.47;4879023;29;20041;-90
2022/08/21 06:19:13;;;;;;;130.40;67.10;;;;;;;19.90;41.36;100457.63;4885407;29;20128;-90
2022/08/21 06:21:39;;;;;;;138.43;68.65;;;;;;;19.99;41.45;100458.31;4869881;29;20049;-89
2022/08/21 06:24:06;;;;;;;137.20;66.50;;;;;;;20.41;41.26;100513.56;4877652;29;20033;-90
2022/08/21 06:26:33;;;;;;;150.77;67.03;;;;;;;20.45;39.99;100510.88;4849523;29;20697;-88
2022/08/21 06:28:59;;;;;;;145.48;67.20;;;;;;;20.52;39.25;100513.91;4883122;29;20095;-89
2022/08/21 06:31:27;;;;;;;137.90;68.03;;;;;;;20.29;39.79;100461.63;4878513;29;20053;-89
2022/08/21 06:33:54;;;;;;;135.73;67.38;;;;;;;20.31;40.23;100450.97;4863015;29;20068;-89
2022/08/21 06:36:23;;;;;;;;;;;;;;;20.79;39.42;100510.34;4884565;29;20048;-87
2022/08/21 06:38:49;;;;;;;126.35;68.30;;;;;;;20.86;39.33;100505.00;4884453;29;19946;-89
2022/08/21 06:41:16;;;;;;;137.98;68.63;;;;;;;20.73;39.45;100484.00;4878307;29;20041;-87
2022/08/21 06:43:52;;;;;;;137.33;66.77;;;;;;;20.46;39.19;100426.38;4862353;29;20451;-88
2022/08/21 06:46:19;;;;;;;133.43;64.75;;;;;;;20.86;38.61;100476.38;4861789;29;20420;-88
2022/08/21 06:48:45;;;;;;;136.20;65.35;;;;;;;20.85;38.99;100463.66;4861251;29;20069;-89
2022/08/21 06:51:12;;;;;;;127.18;65.45;;;;;;;20.87;38.92;100464.94;4845879;29;20060;-86
2022/08/21 06:53:38;;;;;;;123.63;61.72;;;;;;;20.95;38.52;100456.78;4860826;29;20041;-85
2022/08/21 06:56:05;;;;;;;131.20;64.20;;;;;;;21.28;38.81;100496.22;4877763;29;20072;-88
2022/08/21 06:58:30;;;;;;;;;;;;;;;21.46;39.84;100507.88;4886676;29;20475;-89
2022/08/21 07:00:57;;;;;;;127.53;63.67;;;;;;;21.28;38.73;100467.59;4890328;29;19963;-85
2022/08/21 07:03:27;;;;;;;127.95;59.20;;;;;;;21.40;37.99;100475.91;4860853;29;20139;-87
2022/08/21 07:05:54;;;;;;;123.00;58.45;;;;;;;21.41;37.66;100466.38;4878218;29;20542;-87
2022/08/21 07:08:21;;;;;;;121.35;59.90;;;;;;;21.62;38.60;100477.25;4860947;29;20037;-84
2022/08/21 07:10:48;;;;;;;110.65;54.15;;;;;;;21.81;36.13;100494.03;4876843;29;20061;-85
2022/08/21 07:13:15;;;;;;;109.50;53.38;;;;;;;21.73;35.67;100466.41;4876854;29;20045;-84
2022/08/21 07:15:41;;;;;;;115.30;51.42;;;;;;;21.90;36.07;100487.50;4875622;29;20061;-83
2022/08/21 07:18:07;;;;;;;97.68;50.22;;;;;;;21.96;35.06;100483.25;4875851;29;20423;-85
2022/08/21 07:20:34;;;;;;;105.18;51.60;;;;;;;22.02;36.06;100473.47;4868655;29;20049;-85
2022/08/21 07:23:07;;;;;;;100.15;49.75;;;;;;;22.14;34.97;100483.66;4873637;29;20459;-83
2022/08/21 07:25:33;;;;;;;109.80;51.30;;;;;;;22.20;34.83;100479.47;4860951;29;20105;-82
2022/08/21 07:28:00;;;;;;;112.45;51.85;;;;;;;22.04;34.93;100455.19;4877151;29;20045;-85
2022/08/21 07:30:26;;;;;;;122.68;51.67;;;;;;;22.27;34.38;100477.63;4845624;29;20041;-85
2022/08/21 07:32:53;;;;;;;105.93;50.22;;;;;;;22.22;34.95;100468.78;4861225;29;20559;-89
2022/08/21 07:35:19;;;;;;;;;;;;;;;22.35;34.28;100481.41;4877936;29;20045;-84
2022/08/21 07:37:46;;;;;;;109.00;48.90;;;;;;;22.28;34.51;100462.56;4876525;29;19923;-85
2022/08/21 07:40:12;;;;;;;;;;;;;;;22.49;34.70;100481.72;4845921;29;20037;-89
2022/08/21 07:42:46;;;;;;;106.10;47.35;;;;;;;22.58;33.99;100487.06;4877463;29;20031;-87
2022/08/21 07:45:15;;;;;;;90.75;46.22;;;;;;;22.63;33.51;100469.25;4877222;29;20113;-83
2022/08/21 07:47:41;;;;;;;99.40;46.78;;;;;;;22.68;33.78;100469.78;4876890;29;20040;-84
2022/08/21 07:50:08;;;;;;;118.55;52.05;;;;;;;22.77;34.00;100468.72;4877353;29;20132;-84
2022/08/21 07:52:34;;;;;;;113.57;50.58;;;;;;;22.84;33.84;100469.66;4877289;29;20041;-85
2022/08/21 07:55:02;;;;;;;105.90;51.78;;;;;;;22.78;33.67;100432.13;4877092;29;20044;-85
2022/08/21 07:57:32;;;;;;;104.57;50.03;;;;;;;22.92;33.04;100448.34;4877079;29;20053;-84
2022/08/21 07:59:58;;;;;;;108.40;50.13;;;;;;;23.03;32.90;100457.72;4877316;29;20052;-84
2022/08/21 08:02:29;;;;;;;103.95;49.75;;;;;;;23.12;32.87;100461.09;4860139;29;20045;-86
2022/08/21 08:05:00;;;;;;;101.75;48.47;;;;;;;23.08;33.84;100435.13;4877249;29;20079;-85
2022/08/21 08:07:26;;;;;;;103.82;48.30;;;;;;;23.15;33.43;100435.25;4880762;29;20048;-89
2022/08/21 08:09:53;;;;;;;95.40;45.35;;;;;;;23.21;32.17;100435.72;4880554;29;20052;-86
2022/08/21 08:12:19;;;;;;;88.68;43.28;;;;;;;23.16;32.00;100414.53;4880321;29;20040;-84
2022/08/21 08:14:46;;;;;;;165.23;43.33;;;;;;;23.49;31.57;100443.81;4879969;29;20040;-86
2022/08/21 08:17:13;;;;;;;96.32;42.53;;;;;;;23.51;30.87;100447.03;4880200;29;20507;-85
2022/08/21 08:19:39;;;;;;;79.80;40.17;;;;;;;23.26;30.61;100401.16;4880397;29;20099;-85
2022/08/21 08:22:16;;;;;;;75.60;38.38;;;;;;;23.49;30.76;100410.31;4880482;29;20055;-85
2022/08/21 08:24:45;;;;;;;70.28;35.60;;;;;;;23.54;31.09;100407.22;4863420;29;20047;-84
2022/08/21 08:27:12;;;;;;;73.00;36.92;;;;;;;23.63;30.13;100416.13;4861487;29;20033;-85
2022/08/21 08:29:38;;;;;;;71.93;34.83;;;;;;;23.67;30.75;100405.84;4880025;29;20045;-84
2022/08/21 08:32:09;;;;;;;78.25;34.67;;;;;;;23.72;31.29;100401.94;4880584;29;20037;-89
2022/08/21 08:34:37;;;;;;;72.93;34.15;;;;;;;23.87;30.69;100425.28;4880451;29;20045;-83
2022/08/21 08:37:05;;;;;;;81.18;33.63;;;;;;;23.88;29.70;100429.69;4878327;29;20037;-84
2022/08/21 08:39:32;;;;;;;87.07;34.63;;;;;;;23.80;30.00;100409.22;4863613;29;20076;-84
2022/08/21 08:42:27;;;;;;;82.35;36.45;;;;;;;24.00;29.79;100423.06;4872858;29;20064;-83
2022/08/21 08:45:12;;;;;;;88.05;34.05;;;;;;;24.03;30.77;100409.16;4878785;29;20065;-83
2022/08/21 08:47:47;;;;;;;74.82;32.63;;;;;;;24.20;31.29;100427.34;4880763;29;20600;-84
2022/08/21 08:50:25;;;;;;;69.53;32.13;;;;;;;24.32;30.33;100415.13;4847958;29;20053;-83
2022/08/21 08:53:05;;;;;;;79.85;32.50;;;;;;;24.44;29.25;100411.34;4879834;29;20081;-82
2022/08/21 08:55:37;;;;;;;75.07;30.70;;;;;;;24.53;30.62;100409.84;4880906;29;20136;-86
2022/08/21 08:58:04;;;;;;;66.90;31.27;;;;;;;24.71;29.28;100426.84;4855834;29;20045;-84
2022/08/21 09:00:31;;;;;;;65.82;28.08;;;;;;;24.50;29.25;100391.06;4879010;29;20037;-91
2022/08/21 09:03:02;;;;;;;59.55;26.00;;;;;;;24.58;27.89;100398.31;4847916;29;20629;-87
2022/08/21 09:06:09;;;;;;;54.55;26.65;;;;;;;24.46;28.20;100395.78;4848609;29;20049;-88
2022/08/21 09:09:08;;;;;;;54.80;23.92;;;;;;;24.22;27.25;100345.94;4880650;29;20061;-93
2022/08/21 09:12:02;;;;;;;54.40;20.95;;;;;;;24.74;27.23;100428.06;4848106;29;20057;-90
2022/08/21 09:14:32;;;;;;;51.47;19.70;;;;;;;24.82;27.36;100430.53;4834098;29;20052;-91
2022/08/21 09:17:37;;;;;;;42.42;18.05;;;;;;;24.90;27.12;100433.41;4830925;29;20069;-89
2022/08/21 09:20:28;;;;;;;48.72;18.70;;;;;;;24.73;27.17;100373.31;4847874;29;20104;-89
2022/08/21 09:23:29;;;;;;;61.95;19.08;;;;;;;25.15;26.45;100419.72;4879814;29;20049;-91
2022/08/21 09:26:06;;;;;;;48.67;19.25;;;;;;;25.35;28.05;100421.09;4863284;29;20140;-90
2022/08/21 09:28:36;;;;;;;55.35;19.85;;;;;;;25.14;26.66;100348.97;4866634;29;20457;-91
2022/08/21 09:31:40;;;;;;;58.67;19.30;;;;;;;25.76;27.09;100416.25;4863243;29;20037;-89
2022/08/21 09:34:14;;;;;;;64.20;19.08;;;;;;;25.44;26.23;100357.19;4878639;29;20068;-91
2022/08/21 09:36:48;;;;;;;45.30;18.00;;;;;;;25.71;26.34;100382.19;4870429;29;20067;-92
2022/08/21 09:39:25;;;;;;;42.42;17.50;;;;;;;25.70;25.14;100375.00;4888045;29;20051;-91
2022/08/21 09:42:00;;;;;;;51.17;18.63;;;;;;;25.78;26.28;100396.25;4865999;29;20065;-90
2022/08/21 09:44:31;;;;;;;46.20;19.85;;;;;;;25.64;25.48;100396.16;4868489;29;20044;-92
2022/08/21 09:46:59;;;;;;;53.22;21.17;;;;;;;25.60;26.10;100401.72;4849324;29;20048;-90
2022/08/21 09:49:32;;;;;;;63.65;21.85;;;;;;;25.34;26.76;100355.13;4874920;29;20061;-90
2022/08/21 09:52:00;;;;;;;56.10;20.35;;;;;;;25.61;27.48;100389.31;4893745;29;20040;-91
2022/08/21 09:54:54;;;;;;;38.25;17.83;;;;;;;25.43;26.03;100346.38;4851132;29;20052;-91
2022/08/21 09:57:46;;;;;;;48.10;14.63;;;;;;;25.89;25.75;100415.94;4822651;29;20656;-91
2022/08/21 10:00:16;;;;;;;61.63;14.57;;;;;;;25.86;25.87;100414.75;4842925;29;20089;-91
2022/08/21 10:02:42;;;;;;;37.50;14.82;;;;;;;25.59;27.76;100379.69;4826024;29;20038;-89
2022/08/21 10:05:19;;;;;;;39.03;14.90;;;;;;;25.81;27.20;100420.69;4841879;29;20132;-92
2022/08/21 10:07:46;;;;;;;48.78;15.00;;;;;;;25.50;25.84;100377.25;4840085;29;20049;-90
2022/08/21 10:10:21;;;;;;;29.48;12.75;;;;;;;25.41;26.60;100355.19;4855289;29;20144;-90
2022/08/21 10:13:01;;;;;;;31.38;12.25;;;;;;;25.40;26.47;100342.38;4840054;29;20129;-91
2022/08/21 10:15:53;;;;;;;26.23;11.60;;;;;;;25.84;26.78;100417.13;4825005;29;20054;-91
2022/08/21 10:18:28;;;;;;;37.58;11.02;;;;;;;25.82;26.85;100413.91;4824753;29;20479;-92
2022/08/21 10:21:04;;;;;;;26.60;8.88;;;;;;;25.78;25.58;100418.66;4824841;29;20054;-90
2022/08/21 10:23:52;;;;;;;20.80;7.65;;;;;;;25.80;26.00;100404.25;4824880;29;20114;-91
2022/08/21 10:26:43;;;;;;;21.15;8.85;;;;;;;25.83;26.31;100406.28;4839739;29;20126;-91
2022/08/21 10:29:46;;;;;;;28.73;8.88;;;;;;;25.81;26.72;100400.28;4854559;29;20516;-91
2022/08/21 10:32:28;;;;;;;24.70;9.52;;;;;;;25.87;27.24;100398.72;4839698;29;20060;-92
2022/08/21 10:35:22;;;;;;;33.53;12.18;;;;;;;25.87;26.72;100390.34;4853623;29;20070;-92
2022/08/21 10:38:21;;;;;;;92.30;10.05;;;;;;;25.71;26.56;100362.59;4893513;29;20077;-90
2022/08/21 10:41:02;;;;;;;22.30;7.03;;;;;;;25.67;26.54;100373.75;4870705;29;20049;-90
2022/08/21 10:43:42;;;;;;;29.33;7.57;;;;;;;25.43;27.05;100335.19;4893372;29;20420;-90
2022/08/21 10:46:21;;;;;;;20.38;6.20;;;;;;;25.59;26.26;100354.50;4847379;29;20733;-90
2022/08/21 10:48:54;;;;;;;22.25;6.85;;;;;;;25.65;26.62;100358.53;4847114;29;20037;-91
2022/08/21 10:51:27;;;;;;;28.23;7.55;;;;;;;25.85;27.45;100379.50;4860703;29;20044;-91
2022/08/21 10:54:33;;;;;;;19.02;7.10;;;;;;;25.88;25.49;100369.50;4847522;29;20048;-90
2022/08/21 10:57:03;;;;;;;35.22;8.65;;;;;;;25.61;26.97;100319.31;4861969;29;20448;-90
2022/08/21 10:59:38;;;;;;;43.85;7.68;;;;;;;25.72;26.85;100336.97;4862075;29;20113;-91
2022/08/21 11:02:20;;;;;;;31.63;8.18;;;;;;;25.92;26.00;100365.53;4862359;29;20466;-90
2022/08/21 11:05:02;;;;;;;25.05;10.13;;;;;;;25.76;26.39;100326.63;4861752;29;20048;-89
2022/08/21 11:07:52;;;;;;;45.95;10.55;;;;;;;25.71;27.13;100317.78;4861603;29;20045;-88
2022/08/21 11:10:47;;;;;;;42.83;12.82;;;;;;;25.69;27.13;100306.94;4827834;29;20085;-89
2022/08/21 11:13:40;;;;;;;39.35;11.95;;;;;;;25.96;26.54;100360.78;4883032;29;20135;-87
2022/08/21 11:16:34;;;;;;;35.25;12.82;;;;;;;25.76;27.13;100328.59;4882675;29;20049;-91
2022/08/21 11:19:09;;;;;;;43.95;13.60;;;;;;;25.98;27.41;100363.97;4876849;29;20105;-86
2022/08/21 11:21:43;;;;;;;33.38;13.80;;;;;;;25.91;27.93;100338.72;4895224;29;20059;-90
2022/08/21 11:28:22;;;;;;;47.67;16.85;;;;;;;25.90;29.82;100336.31;4877895;29;20100;-83
2022/08/21 11:31:08;;;;;;;47.65;18.60;;;;;;;26.07;28.18;100376.84;4878625;29;20119;-85
2022/08/21 11:33:56;;;;;;;;;;;;;;;26.04;28.17;100372.81;4885372;29;20507;-87
2022/08/21 11:36:31;;;;;;;80.07;31.92;;;;;;;25.98;28.13;100369.56;4877287;29;20015;-89
2022/08/21 11:39:11;;;;;;;73.80;31.33;;;;;;;25.73;30.04;100330.19;4884554;29;20518;-88
2022/08/21 11:41:47;;;;;;;82.55;34.03;;;;;;;25.98;30.37;100369.56;4880468;29;20172;-89
2022/08/21 11:44:34;;;;;;;86.82;37.83;;;;;;;25.82;30.11;100341.06;4846381;29;20040;-91
2022/08/21 11:47:10;;;;;;;95.20;40.20;;;;;;;25.78;28.73;100349.41;4890059;29;20049;-92
2022/08/21 11:49:53;;;;;;;66.55;23.08;;;;;;;25.81;28.16;100361.88;4888675;29;20173;-85
2022/08/21 11:52:25;;;;;;;59.83;19.40;;;;;;;25.68;27.52;100340.97;4889132;29;20515;-89
2022/08/21 11:54:59;;;;;;;47.78;14.98;;;;;;;25.70;27.23;100361.00;4891965;29;20103;-87
2022/08/21 11:57:41;;;;;;;32.63;9.20;;;;;;;25.52;25.76;100336.44;4870605;29;20044;-88